Time;durP1;ratioP1;P1;durP2;ratioP2;P2;SDS_P1;SDS_P2;PMS_P1;PMS_P2;Temp;Humidity;BMP_temperature;BMP_pressure;BME280_temperature;BME280_humidity;BME280_pressure;Samples;Min_cycle;Max_cycle;Signal;HPM_P1;HPM_P2
2023/08/28 00:00:50;;;;;;;3.40;2.20;;;;;;;;;;778592;181;920125;-59
2023/08/28 00:03:16;;;;;;;3.27;2.13;;;;;;;;;;770140;181;920250;-66
2023/08/28 00:05:42;;;;;;;4.70;2.47;;;;;;;;;;752047;181;921432;-67
2023/08/28 00:08:08;;;;;;;4.10;2.17;;;;;;;;;;773686;181;821818;-65
2023/08/28 00:10:33;;;;;;;8.30;2.07;;;;;;;;;;755845;181;938575;-65
2023/08/28 00:12:59;;;;;;;3.70;1.97;;;;;;;;;;773404;180;991052;-58
2023/08/28 00:15:25;;;;;;;4.00;2.20;;;;;;;;;;780375;180;913164;-58
2023/08/28 00:17:51;;;;;;;3.60;2.50;;;;;;;;;;773761;177;914129;-58
2023/08/28 00:20:17;;;;;;;6.57;2.50;;;;;;;;;;772219;180;919034;-66
2023/08/28 00:22:43;;;;;;;3.67;2.40;;;;;;;;;;772682;180;922512;-65
2023/08/28 00:25:09;;;;;;;3.30;2.27;;;;;;;;;;776294;181;920458;-66
2023/08/28 00:27:35;;;;;;;4.00;2.20;;;;;;;;;;776586;177;918376;-66
2023/08/28 00:30:01;;;;;;;4.63;2.17;;;;;;;;;;774769;177;919415;-58
2023/08/28 00:32:26;;;;;;;6.00;2.43;;;;;;;;;;761718;180;1021815;-58
2023/08/28 00:34:52;;;;;;;5.30;2.10;;;;;;;;;;770487;180;919963;-65
2023/08/28 00:37:18;;;;;;;5.37;2.60;;;;;;;;;;770276;180;919529;-58
2023/08/28 00:39:44;;;;;;;4.00;2.70;;;;;;;;;;781025;177;921221;-58
2023/08/28 00:42:10;;;;;;;5.03;2.57;;;;;;;;;;773600;179;921936;-57
2023/08/28 00:44:36;;;;;;;7.70;2.20;;;;;;;;;;776211;180;857580;-57
2023/08/28 00:47:02;;;;;;;4.10;2.03;;;;;;;;;;776453;177;920474;-59
2023/08/28 00:49:27;;;;;;;3.60;1.83;;;;;;;;;;769500;182;823656;-64
2023/08/28 00:51:54;;;;;;;3.40;1.90;;;;;;;;;;767705;178;920084;-56
2023/08/28 00:54:19;;;;;;;2.80;1.90;;;;;;;;;;768447;181;918643;-57
2023/08/28 00:56:45;;;;;;;3.67;1.90;;;;;;;;;;779519;181;819830;-58
2023/08/28 00:59:11;;;;;;;3.40;1.63;;;;;;;;;;771676;181;918104;-64
2023/08/28 01:01:36;;;;;;;2.78;1.75;;;;;;;;;;771330;178;923965;-65
2023/08/28 01:04:03;;;;;;;4.13;1.60;;;;;;;;;;765311;182;919619;-66
2023/08/28 01:06:31;;;;;;;4.90;2.07;;;;;;;;;;770023;181;920365;-64
2023/08/28 01:09:03;;;;;;;3.03;1.80;;;;;;;;;;768189;178;919362;-65
2023/08/28 01:11:34;;;;;;;3.12;1.70;;;;;;;;;;774994;177;920671;-57
2023/08/28 01:14:00;;;;;;;9.73;2.03;;;;;;;;;;772924;179;919126;-58
2023/08/28 01:16:26;;;;;;;2.60;1.60;;;;;;;;;;772101;179;816693;-66
2023/08/28 01:18:52;;;;;;;4.43;1.90;;;;;;;;;;771290;181;919810;-67
2023/08/28 01:21:18;;;;;;;14.37;1.70;;;;;;;;;;770071;178;915547;-65
2023/08/28 01:23:44;;;;;;;5.83;1.73;;;;;;;;;;778153;181;923999;-65
2023/08/28 01:26:09;;;;;;;2.70;1.63;;;;;;;;;;771927;178;920204;-58
2023/08/28 01:28:35;;;;;;;3.40;1.60;;;;;;;;;;770348;181;828579;-58
2023/08/28 01:31:01;;;;;;;4.87;1.93;;;;;;;;;;779167;180;919792;-65
2023/08/28 01:33:27;;;;;;;2.77;1.60;;;;;;;;;;775272;180;921318;-58
2023/08/28 01:35:53;;;;;;;3.33;1.87;;;;;;;;;;771545;180;921656;-65
2023/08/28 01:38:20;;;;;;;3.30;2.03;;;;;;;;;;778607;177;912579;-66
2023/08/28 01:40:51;;;;;;;3.50;1.80;;;;;;;;;;771576;178;919772;-66
2023/08/28 01:43:18;;;;;;;3.80;2.23;;;;;;;;;;773034;177;919620;-58
2023/08/28 01:45:44;;;;;;;3.00;2.03;;;;;;;;;;771586;181;919482;-65
2023/08/28 01:48:09;;;;;;;4.18;1.92;;;;;;;;;;767901;179;919281;-58
2023/08/28 01:50:35;;;;;;;3.33;1.80;;;;;;;;;;770721;180;918862;-65
2023/08/28 01:53:01;;;;;;;2.70;1.87;;;;;;;;;;763121;181;917271;-65
2023/08/28 01:55:28;;;;;;;2.90;1.87;;;;;;;;;;776287;178;922121;-59
2023/08/28 01:57:54;;;;;;;3.00;1.77;;;;;;;;;;765259;180;954734;-66
2023/08/28 02:00:19;;;;;;;3.67;1.50;;;;;;;;;;768720;181;920737;-66
2023/08/28 02:02:45;;;;;;;4.30;2.17;;;;;;;;;;769859;181;994559;-65
2023/08/28 02:05:11;;;;;;;4.30;3.60;;;;;;;;;;772618;181;919810;-66
2023/08/28 02:07:37;;;;;;;2.50;1.60;;;;;;;;;;767511;179;918942;-65
2023/08/28 02:10:03;;;;;;;2.70;1.50;;;;;;;;;;771817;181;920619;-58
2023/08/28 02:12:29;;;;;;;3.57;1.67;;;;;;;;;;779404;178;919013;-59
2023/08/28 02:14:54;;;;;;;4.23;1.60;;;;;;;;;;773277;180;920464;-60
2023/08/28 02:17:20;;;;;;;3.07;1.70;;;;;;;;;;776062;178;869504;-60
2023/08/28 02:19:46;;;;;;;3.07;1.50;;;;;;;;;;780935;178;917919;-59
2023/08/28 02:22:12;;;;;;;4.60;1.60;;;;;;;;;;771519;181;918243;-66
2023/08/28 02:24:38;;;;;;;3.90;2.00;;;;;;;;;;775538;181;880802;-59
2023/08/28 02:27:04;;;;;;;3.57;2.13;;;;;;;;;;776991;177;919068;-65
2023/08/28 02:29:30;;;;;;;3.63;1.50;;;;;;;;;;765477;181;816617;-67
2023/08/28 02:31:56;;;;;;;3.57;2.03;;;;;;;;;;773004;180;918741;-67
2023/08/28 02:34:22;;;;;;;3.47;2.13;;;;;;;;;;774378;181;917085;-59
2023/08/28 02:36:48;;;;;;;4.60;2.10;;;;;;;;;;780536;178;879708;-66
2023/08/28 02:39:13;;;;;;;2.77;1.63;;;;;;;;;;769441;178;914479;-59
2023/08/28 02:41:39;;;;;;;4.93;1.80;;;;;;;;;;770948;180;919708;-66
2023/08/28 02:44:05;;;;;;;3.03;1.90;;;;;;;;;;779463;180;915708;-60
2023/08/28 02:46:31;;;;;;;5.10;2.73;;;;;;;;;;768176;178;918719;-66
2023/08/28 02:48:57;;;;;;;6.17;2.10;;;;;;;;;;775637;180;919253;-65
2023/08/28 02:51:23;;;;;;;3.50;1.97;;;;;;;;;;780628;177;918485;-66
2023/08/28 02:53:49;;;;;;;3.50;1.90;;;;;;;;;;773319;178;919135;-58
2023/08/28 02:56:25;;;;;;;5.00;2.27;;;;;;;;;;768544;180;919355;-59
2023/08/28 02:58:51;;;;;;;3.30;1.90;;;;;;;;;;771329;180;919320;-66
2023/08/28 03:01:18;;;;;;;5.77;1.93;;;;;;;;;;775884;179;919613;-60
2023/08/28 03:03:43;;;;;;;3.60;2.30;;;;;;;;;;771760;179;874449;-60
2023/08/28 03:06:09;;;;;;;5.10;2.10;;;;;;;;;;774305;180;918894;-67
2023/08/28 03:08:35;;;;;;;4.73;2.07;;;;;;;;;;775228;177;916569;-67
2023/08/28 03:11:01;;;;;;;3.73;1.80;;;;;;;;;;781506;177;835441;-67
2023/08/28 03:13:26;;;;;;;3.80;2.10;;;;;;;;;;772840;180;915544;-66
2023/08/28 03:15:52;;;;;;;4.33;2.00;;;;;;;;;;773061;180;920922;-67
2023/08/28 03:18:18;;;;;;;3.20;2.03;;;;;;;;;;779487;180;856198;-61
2023/08/28 03:20:44;;;;;;;7.00;1.93;;;;;;;;;;772463;180;918366;-67
2023/08/28 03:23:10;;;;;;;4.20;2.23;;;;;;;;;;773322;180;922050;-59
2023/08/28 03:25:36;;;;;;;3.80;2.07;;;;;;;;;;777800;180;922092;-60
2023/08/28 03:28:02;;;;;;;3.60;1.90;;;;;;;;;;776270;180;919964;-67
2023/08/28 03:30:27;;;;;;;4.43;2.03;;;;;;;;;;772669;178;918752;-59
2023/08/28 03:32:53;;;;;;;3.70;2.20;;;;;;;;;;775459;178;920241;-66
2023/08/28 03:35:19;;;;;;;3.08;2.00;;;;;;;;;;780662;177;911414;-58
2023/08/28 03:37:45;;;;;;;3.00;1.70;;;;;;;;;;773692;179;923732;-66
2023/08/28 03:40:11;;;;;;;3.37;2.00;;;;;;;;;;773107;180;919976;-67
2023/08/28 03:42:37;;;;;;;4.33;2.03;;;;;;;;;;777438;177;856293;-66
2023/08/28 03:45:03;;;;;;;3.50;2.10;;;;;;;;;;775196;178;921329;-59
2023/08/28 03:47:29;;;;;;;5.03;2.83;;;;;;;;;;775244;180;827087;-57
2023/08/28 03:49:54;;;;;;;4.33;2.30;;;;;;;;;;779889;180;918737;-66
2023/08/28 03:52:20;;;;;;;3.60;1.87;;;;;;;;;;775740;180;919033;-66
2023/08/28 03:54:46;;;;;;;3.70;2.07;;;;;;;;;;775790;180;918915;-60
2023/08/28 03:57:12;;;;;;;5.03;2.20;;;;;;;;;;777622;178;919709;-67
2023/08/28 03:59:38;;;;;;;3.40;1.93;;;;;;;;;;771520;181;818636;-67
2023/08/28 04:02:04;;;;;;;3.10;2.07;;;;;;;;;;773555;180;919924;-67
2023/08/28 04:04:30;;;;;;;7.10;1.87;;;;;;;;;;774200;180;923541;-67
2023/08/28 04:06:55;;;;;;;4.37;2.20;;;;;;;;;;774418;180;895051;-59
2023/08/28 04:09:21;;;;;;;4.20;2.17;;;;;;;;;;769992;180;920814;-59
2023/08/28 04:11:47;;;;;;;4.90;2.60;;;;;;;;;;773384;179;920027;-66
2023/08/28 04:14:13;;;;;;;6.17;2.30;;;;;;;;;;781731;177;919017;-67
2023/08/28 04:16:39;;;;;;;5.63;1.80;;;;;;;;;;772197;178;919196;-60
2023/08/28 04:19:05;;;;;;;5.17;2.50;;;;;;;;;;767545;178;916177;-67
2023/08/28 04:21:30;;;;;;;4.80;2.03;;;;;;;;;;779433;181;915442;-67
2023/08/28 04:23:56;;;;;;;5.20;2.37;;;;;;;;;;770153;181;922028;-66
2023/08/28 04:26:22;;;;;;;5.63;2.63;;;;;;;;;;770997;179;905215;-60
2023/08/28 04:28:48;;;;;;;3.27;2.43;;;;;;;;;;774454;180;919858;-65
2023/08/28 04:31:14;;;;;;;4.93;3.20;;;;;;;;;;770215;179;918730;-60
2023/08/28 04:33:40;;;;;;;5.30;2.50;;;;;;;;;;764809;180;919142;-66
2023/08/28 04:36:05;;;;;;;4.67;2.57;;;;;;;;;;772141;177;920155;-67
2023/08/28 04:38:31;;;;;;;7.43;3.07;;;;;;;;;;779216;181;769154;-58
2023/08/28 04:40:57;;;;;;;6.50;2.80;;;;;;;;;;773926;181;942680;-60
2023/08/28 04:43:23;;;;;;;12.03;3.10;;;;;;;;;;777328;180;913266;-65
2023/08/28 04:45:49;;;;;;;5.27;3.07;;;;;;;;;;776392;181;802529;-66
2023/08/28 04:48:15;;;;;;;14.93;4.43;;;;;;;;;;776589;180;817548;-65
2023/08/28 04:50:41;;;;;;;6.07;2.67;;;;;;;;;;773169;180;915691;-59
2023/08/28 04:53:06;;;;;;;7.80;3.07;;;;;;;;;;774487;177;918394;-59
2023/08/28 04:55:32;;;;;;;5.60;3.13;;;;;;;;;;771500;179;814113;-60
2023/08/28 04:57:58;;;;;;;5.60;2.67;;;;;;;;;;767886;180;904618;-59
2023/08/28 05:00:24;;;;;;;4.15;3.03;;;;;;;;;;774647;181;821837;-65
2023/08/28 05:02:50;;;;;;;5.40;2.90;;;;;;;;;;771768;177;920532;-63
2023/08/28 05:05:16;;;;;;;6.80;2.90;;;;;;;;;;773635;177;931376;-66
2023/08/28 05:07:41;;;;;;;3.63;2.63;;;;;;;;;;765821;181;919599;-59
2023/08/28 05:10:08;;;;;;;6.33;3.37;;;;;;;;;;779205;178;918896;-67
2023/08/28 05:12:33;;;;;;;5.97;3.47;;;;;;;;;;775161;181;918710;-59
2023/08/28 05:14:59;;;;;;;4.50;3.47;;;;;;;;;;771316;179;920388;-59
2023/08/28 05:17:25;;;;;;;4.33;2.90;;;;;;;;;;776468;180;920757;-65
2023/08/28 05:19:51;;;;;;;4.40;2.80;;;;;;;;;;772941;181;921618;-66
2023/08/28 05:22:17;;;;;;;4.77;2.90;;;;;;;;;;772020;180;919658;-65
2023/08/28 05:24:43;;;;;;;4.50;2.80;;;;;;;;;;776963;177;928708;-59
2023/08/28 05:27:08;;;;;;;5.50;2.90;;;;;;;;;;770798;181;815254;-64
2023/08/28 05:29:34;;;;;;;4.22;2.87;;;;;;;;;;764731;180;919236;-58
2023/08/28 05:32:00;;;;;;;4.60;2.97;;;;;;;;;;776323;177;911422;-58
2023/08/28 05:34:26;;;;;;;5.20;3.00;;;;;;;;;;767428;180;914258;-59
2023/08/28 05:36:52;;;;;;;5.23;3.00;;;;;;;;;;758747;181;925064;-59
2023/08/28 05:39:18;;;;;;;4.40;2.73;;;;;;;;;;775974;179;820506;-58
2023/08/28 05:41:43;;;;;;;7.87;2.60;;;;;;;;;;778832;178;871646;-58
2023/08/28 05:44:09;;;;;;;7.20;2.80;;;;;;;;;;773495;179;924337;-58
2023/08/28 05:46:35;;;;;;;7.10;3.30;;;;;;;;;;773778;180;922346;-59
2023/08/28 05:49:02;;;;;;;4.23;3.00;;;;;;;;;;773374;180;886928;-59
2023/08/28 05:51:27;;;;;;;8.33;2.63;;;;;;;;;;782663;180;626281;-58
2023/08/28 05:53:53;;;;;;;5.37;2.97;;;;;;;;;;766743;181;923734;-58
2023/08/28 05:56:18;;;;;;;4.97;2.50;;;;;;;;;;768547;178;795564;-63
2023/08/28 05:58:44;;;;;;;4.87;2.63;;;;;;;;;;777975;181;901849;-61
2023/08/28 06:01:10;;;;;;;5.13;2.13;;;;;;;;;;773851;178;919095;-64
2023/08/28 06:03:36;;;;;;;5.87;2.67;;;;;;;;;;773613;180;821497;-57
2023/08/28 06:06:02;;;;;;;5.77;3.07;;;;;;;;;;775427;180;918840;-57
2023/08/28 06:08:28;;;;;;;6.10;3.30;;;;;;;;;;763972;180;843813;-66
2023/08/28 06:10:53;;;;;;;5.00;2.83;;;;;;;;;;765024;181;817530;-63
2023/08/28 06:13:19;;;;;;;5.53;2.90;;;;;;;;;;778756;180;921387;-64
2023/08/28 06:15:45;;;;;;;5.10;2.93;;;;;;;;;;773152;180;952714;-66
2023/08/28 06:18:11;;;;;;;4.17;3.00;;;;;;;;;;767635;180;895017;-58
2023/08/28 06:20:37;;;;;;;3.50;2.50;;;;;;;;;;775233;179;918711;-66
2023/08/28 06:23:03;;;;;;;4.07;2.37;;;;;;;;;;778107;180;917564;-64
2023/08/28 06:25:29;;;;;;;4.87;2.73;;;;;;;;;;776176;178;642033;-64
2023/08/28 06:27:54;;;;;;;6.60;2.10;;;;;;;;;;776305;180;919266;-65
2023/08/28 06:30:20;;;;;;;5.30;2.37;;;;;;;;;;777043;181;885700;-57
2023/08/28 06:32:46;;;;;;;4.53;2.00;;;;;;;;;;776327;180;910539;-64
2023/08/28 06:35:12;;;;;;;3.80;2.17;;;;;;;;;;770546;180;912863;-57
2023/08/28 06:37:38;;;;;;;3.03;1.80;;;;;;;;;;780049;177;920504;-58
2023/08/28 06:40:04;;;;;;;3.37;2.37;;;;;;;;;;776881;180;926938;-57
2023/08/28 06:42:30;;;;;;;3.37;2.40;;;;;;;;;;777483;180;630138;-65
2023/08/28 06:44:55;;;;;;;4.10;2.47;;;;;;;;;;777839;177;625909;-65
2023/08/28 06:47:21;;;;;;;8.13;3.63;;;;;;;;;;782986;177;621247;-57
2023/08/28 06:49:47;;;;;;;5.57;2.60;;;;;;;;;;770634;180;623425;-65
2023/08/28 06:52:13;;;;;;;5.07;2.93;;;;;;;;;;774216;180;916709;-67
2023/08/28 06:54:39;;;;;;;6.47;2.40;;;;;;;;;;780524;180;921713;-65
2023/08/28 06:57:05;;;;;;;4.60;2.40;;;;;;;;;;777081;178;900413;-63
2023/08/28 06:59:30;;;;;;;5.90;3.10;;;;;;;;;;778209;178;625403;-66
2023/08/28 07:01:56;;;;;;;5.70;2.90;;;;;;;;;;777785;180;617297;-63
2023/08/28 07:04:22;;;;;;;5.03;2.83;;;;;;;;;;778462;179;629450;-63
2023/08/28 07:06:48;;;;;;;5.03;2.93;;;;;;;;;;777485;180;623303;-64
2023/08/28 07:09:14;;;;;;;8.20;2.87;;;;;;;;;;779809;180;633595;-65
2023/08/28 07:11:41;;;;;;;4.17;2.43;;;;;;;;;;776279;180;816566;-57
2023/08/28 07:14:06;;;;;;;6.50;3.30;;;;;;;;;;768141;180;919413;-57
2023/08/28 07:16:31;;;;;;;7.50;3.27;;;;;;;;;;761168;180;918492;-58
2023/08/28 07:18:57;;;;;;;6.60;4.10;;;;;;;;;;771368;181;924692;-64
2023/08/28 07:21:23;;;;;;;7.28;4.50;;;;;;;;;;773785;180;912086;-58
2023/08/28 07:23:51;;;;;;;5.47;3.37;;;;;;;;;;776025;177;919276;-57
2023/08/28 07:26:15;;;;;;;7.47;4.43;;;;;;;;;;779756;177;920400;-62
2023/08/28 07:28:41;;;;;;;8.93;4.83;;;;;;;;;;771419;179;917631;-66
2023/08/28 07:31:07;;;;;;;7.23;4.77;;;;;;;;;;774416;180;916166;-67
2023/08/28 07:33:33;;;;;;;8.97;4.60;;;;;;;;;;776044;181;835134;-63
2023/08/28 07:35:58;;;;;;;8.77;4.20;;;;;;;;;;772646;179;816626;-58
2023/08/28 07:38:24;;;;;;;6.23;3.90;;;;;;;;;;774044;180;817374;-64
2023/08/28 07:40:50;;;;;;;6.40;4.80;;;;;;;;;;772328;181;820211;-65
2023/08/28 07:43:16;;;;;;;5.27;4.33;;;;;;;;;;779359;181;821433;-64
2023/08/28 07:45:42;;;;;;;7.83;4.70;;;;;;;;;;772168;180;814978;-64
2023/08/28 07:48:08;;;;;;;6.43;4.77;;;;;;;;;;775257;180;918724;-57
2023/08/28 07:50:33;;;;;;;7.43;5.00;;;;;;;;;;780640;181;919305;-58
2023/08/28 07:52:59;;;;;;;8.43;6.33;;;;;;;;;;770841;181;918264;-57
2023/08/28 07:55:25;;;;;;;8.30;5.43;;;;;;;;;;775294;180;919551;-63
2023/08/28 07:57:51;;;;;;;6.47;5.20;;;;;;;;;;781194;178;816186;-58
2023/08/28 08:00:20;;;;;;;6.37;5.13;;;;;;;;;;770326;181;916413;-61
2023/08/28 08:02:44;;;;;;;9.40;6.10;;;;;;;;;;773529;181;918991;-65
2023/08/28 08:05:10;;;;;;;9.70;5.60;;;;;;;;;;773192;181;910841;-58
2023/08/28 08:07:36;;;;;;;6.97;4.73;;;;;;;;;;780922;177;917028;-57
2023/08/28 08:10:01;;;;;;;5.87;5.20;;;;;;;;;;774776;178;915986;-60
2023/08/28 08:12:27;;;;;;;6.13;5.30;;;;;;;;;;775185;179;913655;-58
2023/08/28 08:14:53;;;;;;;8.35;5.70;;;;;;;;;;781674;180;917748;-57
2023/08/28 08:17:19;;;;;;;6.00;4.93;;;;;;;;;;773455;177;915552;-57
2023/08/28 08:19:45;;;;;;;4.95;4.45;;;;;;;;;;770954;178;927044;-64
2023/08/28 08:22:11;;;;;;;7.17;5.50;;;;;;;;;;781243;180;923672;-63
2023/08/28 08:24:36;;;;;;;8.10;5.53;;;;;;;;;;768662;178;944760;-68
2023/08/28 08:27:03;;;;;;;8.18;5.87;;;;;;;;;;771631;178;1018391;-65
2023/08/28 08:29:28;;;;;;;7.80;7.00;;;;;;;;;;774615;180;948854;-58
2023/08/28 08:31:54;;;;;;;6.67;5.20;;;;;;;;;;771113;181;816030;-63
2023/08/28 08:34:21;;;;;;;8.60;7.13;;;;;;;;;;769737;180;920385;-65
2023/08/28 08:36:47;;;;;;;6.93;6.00;;;;;;;;;;772907;180;920506;-58
2023/08/28 08:39:13;;;;;;;9.83;6.17;;;;;;;;;;775300;177;888858;-57
2023/08/28 08:41:39;;;;;;;8.00;6.43;;;;;;;;;;772025;180;920866;-65
2023/08/28 08:44:05;;;;;;;8.40;6.97;;;;;;;;;;772663;179;919226;-60
2023/08/28 08:46:31;;;;;;;6.07;5.47;;;;;;;;;;777870;179;919496;-62
2023/08/28 08:48:57;;;;;;;5.70;5.00;;;;;;;;;;768339;180;916254;-58
2023/08/28 08:51:22;;;;;;;8.67;5.50;;;;;;;;;;772308;180;925198;-58
2023/08/28 08:53:49;;;;;;;6.30;5.03;;;;;;;;;;769598;180;917761;-62
2023/08/28 08:56:15;;;;;;;5.80;4.90;;;;;;;;;;771333;177;920052;-56
2023/08/28 08:58:41;;;;;;;10.55;5.47;;;;;;;;;;763150;179;818765;-56
2023/08/28 09:01:07;;;;;;;6.30;5.43;;;;;;;;;;762238;180;919058;-62
2023/08/28 09:03:32;;;;;;;5.20;4.60;;;;;;;;;;781712;180;815679;-63
2023/08/28 09:05:59;;;;;;;7.40;4.50;;;;;;;;;;776706;180;817329;-57
2023/08/28 09:08:24;;;;;;;7.57;4.23;;;;;;;;;;777021;180;826318;-57
2023/08/28 09:10:50;;;;;;;7.40;4.10;;;;;;;;;;778695;180;919855;-63
2023/08/28 09:13:16;;;;;;;7.53;4.20;;;;;;;;;;773172;180;916547;-56
2023/08/28 09:15:42;;;;;;;3.95;3.03;;;;;;;;;;773423;180;819410;-62
2023/08/28 09:18:07;;;;;;;4.97;3.37;;;;;;;;;;777765;180;939640;-56
2023/08/28 09:20:34;;;;;;;5.27;3.83;;;;;;;;;;767815;180;920872;-57
2023/08/28 09:22:59;;;;;;;6.73;4.07;;;;;;;;;;772411;181;918280;-57
2023/08/28 09:25:26;;;;;;;6.40;3.60;;;;;;;;;;769166;181;919342;-65
2023/08/28 09:27:52;;;;;;;5.70;3.80;;;;;;;;;;779215;179;919438;-66
2023/08/28 09:30:23;;;;;;;9.23;4.07;;;;;;;;;;770960;180;924682;-62
2023/08/28 09:32:49;;;;;;;5.22;4.25;;;;;;;;;;774035;180;922421;-57
2023/08/28 09:35:15;;;;;;;10.70;4.60;;;;;;;;;;777939;177;819434;-56
2023/08/28 09:37:41;;;;;;;5.83;4.17;;;;;;;;;;773769;178;919234;-63
2023/08/28 09:40:07;;;;;;;5.70;4.10;;;;;;;;;;770980;178;919460;-56
2023/08/28 09:42:33;;;;;;;6.40;4.90;;;;;;;;;;771753;178;918826;-64
2023/08/28 09:44:59;;;;;;;6.80;3.80;;;;;;;;;;770048;180;919173;-56
2023/08/28 09:47:25;;;;;;;6.90;4.83;;;;;;;;;;768796;180;920189;-63
2023/08/28 09:49:51;;;;;;;7.30;4.80;;;;;;;;;;773327;180;918857;-64
2023/08/28 09:52:17;;;;;;;7.40;5.07;;;;;;;;;;779572;180;924003;-57
2023/08/28 09:54:42;;;;;;;7.37;5.93;;;;;;;;;;773885;179;918486;-64
2023/08/28 09:57:14;;;;;;;11.90;5.70;;;;;;;;;;772161;180;919335;-63
2023/08/28 09:59:40;;;;;;;5.80;4.57;;;;;;;;;;772790;181;937343;-58
2023/08/28 10:02:06;;;;;;;10.57;5.80;;;;;;;;;;778510;180;918399;-56
2023/08/28 10:04:33;;;;;;;10.03;6.37;;;;;;;;;;771345;180;920687;-57
2023/08/28 10:06:58;;;;;;;9.30;5.40;;;;;;;;;;775102;180;816643;-62
2023/08/28 10:09:24;;;;;;;12.03;7.70;;;;;;;;;;775563;179;817779;-64
2023/08/28 10:11:50;;;;;;;9.13;6.83;;;;;;;;;;778983;177;821688;-63
2023/08/28 10:14:15;;;;;;;11.03;7.33;;;;;;;;;;774804;180;919206;-57
2023/08/28 10:16:42;;;;;;;11.37;8.40;;;;;;;;;;780495;180;918571;-65
2023/08/28 10:19:07;;;;;;;8.03;6.00;;;;;;;;;;773160;179;909767;-57
2023/08/28 10:21:33;;;;;;;9.50;5.90;;;;;;;;;;774168;177;916537;-56
2023/08/28 10:23:59;;;;;;;12.13;8.73;;;;;;;;;;768622;181;914405;-57
2023/08/28 10:26:25;;;;;;;9.80;8.40;;;;;;;;;;776769;180;946536;-63
2023/08/28 10:28:51;;;;;;;8.53;7.03;;;;;;;;;;772849;179;922573;-65
2023/08/28 10:31:17;;;;;;;8.60;6.82;;;;;;;;;;774145;180;923144;-64
2023/08/28 10:33:42;;;;;;;7.87;6.20;;;;;;;;;;777550;180;918547;-65
2023/08/28 10:36:09;;;;;;;10.63;7.60;;;;;;;;;;776193;179;856152;-65
2023/08/28 10:38:34;;;;;;;7.07;5.90;;;;;;;;;;771344;181;1025332;-67
2023/08/28 10:41:00;;;;;;;7.40;6.70;;;;;;;;;;776110;181;926673;-57
2023/08/28 10:43:26;;;;;;;10.10;6.93;;;;;;;;;;772568;178;920236;-65
2023/08/28 10:45:52;;;;;;;10.90;9.70;;;;;;;;;;773412;178;923636;-57
2023/08/28 10:48:18;;;;;;;8.93;6.23;;;;;;;;;;768296;184;817657;-65
2023/08/28 10:50:43;;;;;;;10.40;7.40;;;;;;;;;;770174;178;822306;-64
2023/08/28 10:53:12;;;;;;;9.63;7.87;;;;;;;;;;772928;180;922440;-64
2023/08/28 10:55:38;;;;;;;8.33;6.00;;;;;;;;;;771697;181;919405;-57
2023/08/28 10:58:04;;;;;;;9.90;8.47;;;;;;;;;;779856;178;912469;-64
2023/08/28 11:00:29;;;;;;;7.37;6.57;;;;;;;;;;774900;180;913610;-58
2023/08/28 11:03:01;;;;;;;9.00;6.83;;;;;;;;;;775888;177;790610;-64
2023/08/28 11:05:27;;;;;;;9.00;7.32;;;;;;;;;;776942;180;918232;-57
2023/08/28 11:07:54;;;;;;;19.03;13.03;;;;;;;;;;774412;181;972347;-56
2023/08/28 11:10:20;;;;;;;11.93;9.30;;;;;;;;;;769092;179;924759;-57
2023/08/28 11:12:53;;;;;;;10.77;7.33;;;;;;;;;;773169;177;919341;-56
2023/08/28 11:15:25;;;;;;;8.57;6.80;;;;;;;;;;777686;177;919846;-66
2023/08/28 11:17:50;;;;;;;12.30;9.10;;;;;;;;;;775205;180;919294;-56
2023/08/28 11:20:16;;;;;;;9.47;5.63;;;;;;;;;;771245;178;920043;-56
2023/08/28 11:22:42;;;;;;;11.12;7.72;;;;;;;;;;768960;179;919731;-57
2023/08/28 11:25:09;;;;;;;11.13;7.83;;;;;;;;;;778654;179;921993;-64
2023/08/28 11:27:33;;;;;;;6.97;6.00;;;;;;;;;;776485;180;817427;-57
2023/08/28 11:30:00;;;;;;;11.57;6.72;;;;;;;;;;770085;181;916558;-66
2023/08/28 11:32:26;;;;;;;10.70;7.13;;;;;;;;;;778913;181;938226;-56
2023/08/28 11:34:52;;;;;;;6.67;5.07;;;;;;;;;;765592;181;919478;-64
2023/08/28 11:37:35;;;;;;;12.77;7.10;;;;;;;;;;771365;181;918793;-64
2023/08/28 11:40:01;;;;;;;7.70;6.10;;;;;;;;;;773514;180;918524;-59
2023/08/28 11:42:28;;;;;;;14.43;7.50;;;;;;;;;;761889;184;919428;-58
2023/08/28 11:44:54;;;;;;;8.27;5.60;;;;;;;;;;766421;181;915693;-66
2023/08/28 11:47:22;;;;;;;9.77;8.77;;;;;;;;;;770739;180;919745;-59
2023/08/28 11:49:48;;;;;;;8.30;6.40;;;;;;;;;;765195;180;919531;-64
2023/08/28 11:52:15;;;;;;;11.27;8.47;;;;;;;;;;769786;181;919584;-64
2023/08/28 11:54:41;;;;;;;12.03;7.93;;;;;;;;;;770164;180;921429;-58
2023/08/28 11:57:06;;;;;;;8.80;7.10;;;;;;;;;;774458;180;926240;-57
2023/08/28 11:59:33;;;;;;;8.35;6.75;;;;;;;;;;778186;180;918898;-58
2023/08/28 12:01:59;;;;;;;10.90;7.67;;;;;;;;;;768633;181;919040;-58
2023/08/28 12:04:25;;;;;;;9.63;7.30;;;;;;;;;;771644;180;918510;-66
2023/08/28 12:06:51;;;;;;;12.57;9.30;;;;;;;;;;771431;179;918589;-58
2023/08/28 12:09:16;;;;;;;9.90;8.00;;;;;;;;;;780711;180;723563;-57
2023/08/28 12:11:42;;;;;;;9.30;6.63;;;;;;;;;;771770;180;916355;-65
2023/08/28 12:14:13;;;;;;;8.77;6.73;;;;;;;;;;752796;181;939595;-58
2023/08/28 12:16:39;;;;;;;10.60;7.70;;;;;;;;;;775484;180;870048;-64
2023/08/28 12:19:05;;;;;;;8.53;7.63;;;;;;;;;;771902;180;919064;-64
2023/08/28 12:21:34;;;;;;;8.70;7.20;;;;;;;;;;770040;181;919775;-57
2023/08/28 12:23:59;;;;;;;9.60;8.20;;;;;;;;;;772795;180;847649;-65
2023/08/28 12:26:25;;;;;;;9.63;7.33;;;;;;;;;;779209;181;919412;-57
2023/08/28 12:28:51;;;;;;;7.87;5.40;;;;;;;;;;769685;177;924417;-57
2023/08/28 12:31:26;;;;;;;13.07;8.17;;;;;;;;;;763190;180;915820;-57
2023/08/28 12:33:51;;;;;;;7.53;6.13;;;;;;;;;;772112;180;918937;-57
2023/08/28 12:36:18;;;;;;;8.13;6.43;;;;;;;;;;777446;180;816931;-57
2023/08/28 12:38:43;;;;;;;9.30;6.83;;;;;;;;;;771973;181;866759;-64
2023/08/28 12:41:09;;;;;;;10.23;6.37;;;;;;;;;;774708;181;919086;-67
2023/08/28 12:43:36;;;;;;;7.50;5.90;;;;;;;;;;781841;180;818466;-57
2023/08/28 12:46:01;;;;;;;7.20;6.00;;;;;;;;;;776970;180;919968;-65
2023/08/28 12:48:27;;;;;;;9.70;5.40;;;;;;;;;;773845;180;922482;-65
2023/08/28 12:50:53;;;;;;;9.83;6.67;;;;;;;;;;777151;178;812975;-58
2023/08/28 12:53:19;;;;;;;9.67;6.60;;;;;;;;;;771827;181;819834;-67
2023/08/28 12:55:45;;;;;;;9.07;6.78;;;;;;;;;;769528;181;814419;-58
2023/08/28 12:58:11;;;;;;;11.40;6.40;;;;;;;;;;777403;178;805782;-66
2023/08/28 13:00:36;;;;;;;11.57;6.40;;;;;;;;;;772429;180;816747;-57
2023/08/28 13:03:03;;;;;;;8.43;6.33;;;;;;;;;;764678;181;919708;-65
2023/08/28 13:05:28;;;;;;;7.83;6.33;;;;;;;;;;771519;178;918754;-58
2023/08/28 13:07:54;;;;;;;8.70;5.87;;;;;;;;;;777926;180;917131;-64
2023/08/28 13:10:20;;;;;;;7.53;5.10;;;;;;;;;;770507;178;920815;-59
2023/08/28 13:12:46;;;;;;;9.45;7.18;;;;;;;;;;770787;177;918724;-57
2023/08/28 13:15:12;;;;;;;7.27;4.70;;;;;;;;;;776401;181;914009;-58
2023/08/28 13:17:37;;;;;;;15.10;7.60;;;;;;;;;;775201;180;816896;-58
2023/08/28 13:20:04;;;;;;;8.20;6.60;;;;;;;;;;775457;180;921370;-66
2023/08/28 13:22:30;;;;;;;10.80;7.32;;;;;;;;;;774018;178;919875;-59
2023/08/28 13:24:55;;;;;;;9.80;7.50;;;;;;;;;;771649;180;821795;-67
2023/08/28 13:27:21;;;;;;;10.30;6.70;;;;;;;;;;772946;179;914903;-58
2023/08/28 13:29:47;;;;;;;9.77;5.97;;;;;;;;;;773797;177;918168;-59
2023/08/28 13:32:13;;;;;;;12.10;7.07;;;;;;;;;;768224;181;919777;-67
2023/08/28 13:34:39;;;;;;;9.23;6.97;;;;;;;;;;769820;177;908716;-67
2023/08/28 13:37:05;;;;;;;9.93;6.60;;;;;;;;;;772344;177;816569;-59
2023/08/28 13:39:31;;;;;;;11.50;6.40;;;;;;;;;;779246;179;892685;-66
2023/08/28 13:41:56;;;;;;;13.40;7.63;;;;;;;;;;768563;178;915595;-58
2023/08/28 13:44:22;;;;;;;13.30;7.70;;;;;;;;;;772614;178;916244;-60
2023/08/28 13:46:48;;;;;;;10.80;7.77;;;;;;;;;;780283;180;803358;-58
2023/08/28 13:49:14;;;;;;;11.43;7.87;;;;;;;;;;776966;177;919570;-60
2023/08/28 13:51:42;;;;;;;14.07;9.03;;;;;;;;;;771050;180;918855;-59
2023/08/28 13:54:06;;;;;;;11.67;8.87;;;;;;;;;;772155;177;917360;-59
2023/08/28 13:56:32;;;;;;;8.50;6.97;;;;;;;;;;780289;177;942048;-58
2023/08/28 13:58:57;;;;;;;8.73;6.53;;;;;;;;;;771214;180;919152;-59
2023/08/28 14:01:24;;;;;;;10.87;8.83;;;;;;;;;;766026;180;919529;-58
2023/08/28 14:03:51;;;;;;;12.10;8.63;;;;;;;;;;776041;180;816971;-59
2023/08/28 14:06:15;;;;;;;12.07;8.37;;;;;;;;;;775480;178;917086;-67
2023/08/28 14:08:41;;;;;;;8.93;7.80;;;;;;;;;;769680;177;919207;-58
2023/08/28 14:11:07;;;;;;;13.80;12.27;;;;;;;;;;778552;180;919082;-66
2023/08/28 14:13:33;;;;;;;10.30;8.03;;;;;;;;;;777783;178;874026;-66
2023/08/28 14:15:58;;;;;;;10.30;7.17;;;;;;;;;;775595;180;819016;-59
2023/08/28 14:18:24;;;;;;;9.63;7.83;;;;;;;;;;774748;180;919127;-64
2023/08/28 14:20:50;;;;;;;11.10;10.10;;;;;;;;;;767598;181;915467;-59